createdAt,value
2023-02-01T00:01:28.109Z,8.10
2023-02-01T00:03:56.372Z,8.10
2023-02-01T00:06:24.689Z,8.10
2023-02-01T00:08:55.300Z,8.10
2023-02-01T00:11:25.709Z,8.10
2023-02-01T00:13:53.957Z,8.10
2023-02-01T00:16:24.901Z,8.10
2023-02-01T00:18:54.625Z,8.10
2023-02-01T00:21:23.501Z,8.10
2023-02-01T00:23:51.724Z,8.10
2023-02-01T00:26:21.623Z,8.10
2023-02-01T00:28:51.257Z,8.00
2023-02-01T00:31:19.508Z,8.00
2023-02-01T00:33:49.726Z,8.00
2023-02-01T00:36:18.407Z,8.00
2023-02-01T00:38:46.647Z,8.00
2023-02-01T00:41:16.806Z,7.90
2023-02-01T00:43:45.306Z,7.90
2023-02-01T00:46:16.655Z,8.00
2023-02-01T00:48:45.058Z,8.00
2023-02-01T00:51:15.716Z,8.00
2023-02-01T00:53:44.000Z,8.00
2023-02-01T00:56:12.315Z,8.00
2023-02-01T00:58:41.068Z,8.00
2023-02-01T01:01:11.188Z,8.00
2023-02-01T01:03:43.510Z,8.00
2023-02-01T01:06:13.955Z,8.00
2023-02-01T01:08:43.170Z,8.00
2023-02-01T01:11:13.090Z,8.00
2023-02-01T01:13:41.713Z,8.00
2023-02-01T01:16:11.685Z,8.00
2023-02-01T01:18:41.813Z,8.00
2023-02-01T01:21:11.668Z,8.10
2023-02-01T01:23:40.119Z,8.10
2023-02-01T01:26:08.996Z,8.10
2023-02-01T01:28:37.398Z,8.10
2023-02-01T01:31:06.035Z,8.10
2023-02-01T01:33:34.372Z,8.20
2023-02-01T01:36:04.046Z,8.20
2023-02-01T01:38:32.366Z,8.20
2023-02-01T01:41:00.663Z,8.20
2023-02-01T01:43:48.539Z,8.20
2023-02-01T01:46:19.420Z,8.20
2023-02-01T01:48:49.215Z,8.20
2023-02-01T01:51:21.588Z,8.30
2023-02-01T01:53:55.623Z,8.30
2023-02-01T01:56:24.947Z,8.30
2023-02-01T01:58:54.937Z,8.30
2023-02-01T02:01:23.221Z,8.30
2023-02-01T02:03:52.298Z,8.30
2023-02-01T02:06:34.958Z,8.30
2023-02-01T02:09:05.960Z,8.40
2023-02-01T02:11:35.226Z,8.40
2023-02-01T02:14:05.434Z,8.40
2023-02-01T02:17:13.588Z,8.40
2023-02-01T02:20:29.927Z,8.30
2023-02-01T02:23:41.940Z,8.40
2023-02-01T02:26:34.011Z,8.30
2023-02-01T02:29:41.878Z,8.40
2023-02-01T02:32:35.195Z,8.30
2023-02-01T02:35:10.013Z,8.40
2023-02-01T02:37:43.502Z,8.30
2023-02-01T02:40:22.004Z,8.30
2023-02-01T02:43:18.750Z,8.30
2023-02-01T02:46:10.871Z,8.30
2023-02-01T02:48:45.378Z,8.40
2023-02-01T02:51:35.393Z,8.40
2023-02-01T02:54:26.708Z,8.40
2023-02-01T02:57:16.283Z,8.40
2023-02-01T03:00:04.242Z,8.40
2023-02-01T03:02:50.456Z,8.50
2023-02-01T03:05:18.848Z,8.50
2023-02-01T03:08:12.816Z,8.50
2023-02-01T03:10:52.819Z,8.50
2023-02-01T03:13:28.692Z,8.50
2023-02-01T03:16:02.965Z,8.50
2023-02-01T03:18:41.280Z,8.60
2023-02-01T03:21:12.730Z,8.60
2023-02-01T03:23:43.957Z,8.60
2023-02-01T03:26:16.209Z,8.60
2023-02-01T03:28:50.767Z,8.60
2023-02-01T03:31:19.221Z,8.60
2023-02-01T03:33:47.555Z,8.60
2023-02-01T03:36:27.123Z,8.60
2023-02-01T03:39:04.730Z,8.60
2023-02-01T03:41:40.730Z,8.60
2023-02-01T03:44:15.995Z,8.60
2023-02-01T03:46:49.150Z,8.60
2023-02-01T03:49:23.009Z,8.60
2023-02-01T03:51:53.544Z,8.60
2023-02-01T03:54:23.826Z,8.70
2023-02-01T03:57:00.218Z,8.70
2023-02-01T03:59:28.709Z,8.70
2023-02-01T04:01:57.018Z,8.70
2023-02-01T04:04:25.258Z,8.70
2023-02-01T04:06:53.655Z,8.70
2023-02-01T04:09:23.441Z,8.70
2023-02-01T04:11:51.791Z,8.70
2023-02-01T04:14:20.217Z,8.80
2023-02-01T04:16:48.678Z,8.80
2023-02-01T04:19:17.118Z,8.80
2023-02-01T04:21:45.508Z,8.80
2023-02-01T04:24:13.915Z,8.80
2023-02-01T04:26:44.230Z,8.80
2023-02-01T04:29:12.876Z,8.80
2023-02-01T04:31:41.409Z,8.80
2023-02-01T04:34:09.758Z,8.80
2023-02-01T04:36:38.042Z,8.80
2023-02-01T04:39:06.330Z,8.80
2023-02-01T04:41:34.614Z,8.80
2023-02-01T04:44:04.334Z,8.80
2023-02-01T04:46:32.748Z,8.80
2023-02-01T04:49:01.179Z,8.80
2023-02-01T04:51:29.491Z,8.80
2023-02-01T04:53:57.847Z,8.80
2023-02-01T04:56:26.197Z,8.80
2023-02-01T04:58:54.536Z,8.80
2023-02-01T05:01:25.714Z,8.80
2023-02-01T05:03:54.071Z,8.80
2023-02-01T05:06:22.563Z,8.80
2023-02-01T05:08:50.991Z,8.80
2023-02-01T05:11:33.117Z,8.90
2023-02-01T05:14:02.658Z,8.90
2023-02-01T05:16:32.578Z,8.90
2023-02-01T05:19:00.958Z,8.80
2023-02-01T05:21:29.224Z,8.80
2023-02-01T05:24:14.159Z,8.80
2023-02-01T05:26:43.057Z,8.80
2023-02-01T05:29:12.063Z,8.70
2023-02-01T05:31:41.930Z,8.70
2023-02-01T05:34:10.244Z,8.70
2023-02-01T05:36:38.507Z,8.60
2023-02-01T05:39:06.848Z,8.60
2023-02-01T05:41:35.073Z,8.60
2023-02-01T05:44:03.737Z,8.60
2023-02-01T05:46:32.367Z,8.60
2023-02-01T05:49:02.032Z,8.60
2023-02-01T05:51:30.268Z,8.60
2023-02-01T05:53:58.763Z,8.60
2023-02-01T05:56:27.044Z,8.60
2023-02-01T05:58:55.924Z,8.60
2023-02-01T06:01:24.200Z,8.60
2023-02-01T06:03:52.452Z,8.60
2023-02-01T06:06:22.313Z,8.50
2023-02-01T06:08:50.585Z,8.50
2023-02-01T06:11:31.724Z,8.50
2023-02-01T06:14:01.039Z,8.50
2023-02-01T06:16:29.572Z,8.50
2023-02-01T06:18:57.841Z,8.50
2023-02-01T06:21:27.603Z,8.50
2023-02-01T06:23:58.611Z,8.50
2023-02-01T06:26:27.142Z,8.50
2023-02-01T06:28:56.225Z,8.50
2023-02-01T06:31:26.351Z,8.50
2023-02-01T06:33:54.706Z,8.50
2023-02-01T06:36:23.572Z,8.50
2023-02-01T06:38:53.303Z,8.40
2023-02-01T06:41:21.956Z,8.40
2023-02-01T06:43:50.187Z,8.40
2023-02-01T06:46:18.499Z,8.40
2023-02-01T06:48:47.497Z,8.40
2023-02-01T06:51:27.138Z,8.40
2023-02-01T06:53:56.912Z,8.40
2023-02-01T06:56:25.543Z,8.40
2023-02-01T06:58:53.785Z,8.40
2023-02-01T07:01:22.916Z,8.40
2023-02-01T07:03:52.146Z,8.40
2023-02-01T07:06:20.898Z,8.50
2023-02-01T07:08:49.097Z,8.50
2023-02-01T07:11:20.969Z,8.50
2023-02-01T07:13:49.301Z,8.50
2023-02-01T07:16:19.741Z,8.50
2023-02-01T07:18:48.828Z,8.60
2023-02-01T07:21:17.037Z,8.60
2023-02-01T07:23:45.262Z,8.60
2023-02-01T07:26:15.173Z,8.60
2023-02-01T07:28:45.071Z,8.60
2023-02-01T07:31:16.345Z,8.60
2023-02-01T07:33:44.597Z,8.60
2023-02-01T07:36:15.253Z,8.60
2023-02-01T07:38:43.753Z,8.60
2023-02-01T07:41:12.582Z,8.60
2023-02-01T07:43:40.922Z,8.70
2023-02-01T07:46:12.198Z,8.70
2023-02-01T07:48:40.590Z,8.70
2023-02-01T07:51:12.279Z,8.70
2023-02-01T07:53:41.072Z,8.70
2023-02-01T07:56:14.019Z,8.70
2023-02-01T07:58:42.526Z,8.70
2023-02-01T08:01:21.993Z,8.70
2023-02-01T08:03:51.794Z,8.70
2023-02-01T08:06:21.048Z,8.80
2023-02-01T08:08:49.414Z,8.80
2023-02-01T08:11:18.895Z,8.80
2023-02-01T08:13:47.653Z,8.80
2023-02-01T08:16:18.727Z,8.90
2023-02-01T08:18:48.088Z,8.90
2023-02-01T08:21:18.409Z,8.90
2023-02-01T08:23:47.362Z,9.00
2023-02-01T08:26:17.769Z,9.00
2023-02-01T08:28:48.763Z,9.00
2023-02-01T08:31:20.811Z,9.00
2023-02-01T08:33:53.977Z,9.00
2023-02-01T08:36:23.033Z,9.10
2023-02-01T08:38:51.685Z,9.10
2023-02-01T08:41:21.621Z,9.10
2023-02-01T08:43:49.991Z,9.10
2023-02-01T08:46:21.325Z,9.10
2023-02-01T08:48:50.492Z,9.20
2023-02-01T08:51:21.215Z,9.20
2023-02-01T08:53:50.305Z,9.20
2023-02-01T08:56:19.802Z,9.20
2023-02-01T08:58:48.037Z,9.20
2023-02-01T09:01:18.326Z,9.20
2023-02-01T09:03:48.128Z,9.20
2023-02-01T09:06:17.609Z,9.30
2023-02-01T09:08:46.219Z,9.30
2023-02-01T09:11:17.873Z,9.30
2023-02-01T09:13:46.320Z,9.30
2023-02-01T09:16:14.845Z,9.40
2023-02-01T09:18:55.578Z,9.40
2023-02-01T09:21:34.377Z,9.40
2023-02-01T09:24:02.715Z,9.40
2023-02-01T09:26:32.680Z,9.40
2023-02-01T09:29:01.569Z,9.50
2023-02-01T09:31:30.067Z,9.40
2023-02-01T09:33:58.633Z,9.40
2023-02-01T09:36:27.624Z,9.40
2023-02-01T09:38:59.182Z,9.40
2023-02-01T09:41:39.432Z,9.40
2023-02-01T09:44:17.223Z,9.50
2023-02-01T09:46:45.603Z,9.40
2023-02-01T09:49:18.248Z,9.50
2023-02-01T09:51:50.697Z,9.40
2023-02-01T09:54:24.191Z,9.50
2023-02-01T09:56:57.340Z,9.40
2023-02-01T09:59:35.664Z,9.50
2023-02-01T10:02:05.779Z,9.50
2023-02-01T10:04:34.743Z,9.50
2023-02-01T10:07:20.537Z,9.50
2023-02-01T10:10:00.565Z,9.50
2023-02-01T10:12:54.481Z,9.50
2023-02-01T10:15:34.226Z,9.50
2023-02-01T10:18:26.193Z,9.50
2023-02-01T10:21:03.732Z,9.50
2023-02-01T10:23:51.030Z,9.50
2023-02-01T10:26:24.212Z,9.50
2023-02-01T10:28:53.092Z,9.50
2023-02-01T10:31:23.116Z,9.60
2023-02-01T10:33:54.763Z,9.60
2023-02-01T10:36:28.175Z,9.50
2023-02-01T10:38:59.533Z,9.60
2023-02-01T10:41:35.089Z,9.50
2023-02-01T10:44:06.866Z,9.50
2023-02-01T10:46:36.477Z,9.50
2023-02-01T10:49:07.630Z,9.50
2023-02-01T10:51:45.597Z,9.50
2023-02-01T10:54:18.858Z,9.50
2023-02-01T10:56:48.800Z,9.50
2023-02-01T10:59:20.203Z,9.60
2023-02-01T11:01:50.257Z,9.60
2023-02-01T11:04:21.138Z,9.60
2023-02-01T11:06:51.488Z,9.60
2023-02-01T11:09:27.927Z,9.60
2023-02-01T11:12:00.111Z,9.60
2023-02-01T11:14:40.157Z,9.60
2023-02-01T11:17:29.345Z,9.60
2023-02-01T11:20:02.842Z,9.70
2023-02-01T11:22:31.844Z,9.70
2023-02-01T11:25:03.737Z,9.70
2023-02-01T11:27:40.348Z,9.70
2023-02-01T11:30:19.100Z,9.70
2023-02-01T11:32:49.898Z,9.80
2023-02-01T11:35:21.669Z,9.80
2023-02-01T11:37:56.778Z,9.80
2023-02-01T11:40:28.673Z,9.80
2023-02-01T11:43:00.684Z,9.80
2023-02-01T11:45:30.459Z,9.80
2023-02-01T11:48:00.563Z,9.80
2023-02-01T11:50:36.706Z,9.80
2023-02-01T11:53:28.075Z,9.90
2023-02-01T11:56:04.282Z,9.90
2023-02-01T11:59:11.202Z,9.90
2023-02-01T12:01:56.262Z,9.90
2023-02-01T12:04:52.832Z,9.90
2023-02-01T12:07:26.921Z,9.90
2023-02-01T12:10:07.011Z,9.90
2023-02-01T12:12:43.701Z,9.80
2023-02-01T12:15:30.705Z,9.90
2023-02-01T12:18:15.576Z,9.90
2023-02-01T12:21:00.926Z,9.90
2023-02-01T12:23:59.780Z,9.90
2023-02-01T12:26:49.171Z,9.90
2023-02-01T12:29:36.223Z,10.00
2023-02-01T12:32:15.682Z,10.00
2023-02-01T12:35:22.741Z,10.00
2023-02-01T12:38:09.573Z,10.00
2023-02-01T12:40:49.856Z,10.00
2023-02-01T12:43:26.151Z,10.10
2023-02-01T12:46:00.019Z,10.10
2023-02-01T12:48:34.340Z,10.10
2023-02-01T12:51:06.767Z,10.20
2023-02-01T12:53:47.055Z,10.20
2023-02-01T12:56:24.235Z,10.20
2023-02-01T12:58:55.778Z,10.20
2023-02-01T13:01:29.688Z,10.30
2023-02-01T13:04:10.611Z,10.30
2023-02-01T13:06:44.247Z,10.30
2023-02-01T13:09:21.208Z,10.40
2023-02-01T13:11:51.703Z,10.50
2023-02-01T13:14:29.670Z,10.50
2023-02-01T13:17:02.452Z,10.50
2023-02-01T13:19:41.673Z,10.60
2023-02-01T13:22:15.158Z,10.60
2023-02-01T13:24:47.364Z,10.60
2023-02-01T13:27:16.652Z,10.60
2023-02-01T13:29:52.500Z,10.60
2023-02-01T13:33:37.301Z,10.70
2023-02-01T13:36:18.259Z,10.70
2023-02-01T13:39:14.590Z,10.80
2023-02-01T13:41:51.687Z,10.80
2023-02-01T13:44:26.696Z,10.80
2023-02-01T13:46:59.113Z,10.80
2023-02-01T13:49:30.923Z,10.80
2023-02-01T13:52:04.151Z,10.80
2023-02-01T13:54:34.127Z,10.80
2023-02-01T13:57:04.021Z,10.80
2023-02-01T13:59:53.671Z,10.80
2023-02-01T14:02:52.070Z,10.80
2023-02-01T14:05:58.856Z,10.80
2023-02-01T14:08:45.040Z,10.80
2023-02-01T14:11:43.798Z,10.80
2023-02-01T14:14:47.062Z,10.80
2023-02-01T14:17:37.270Z,10.80
2023-02-01T14:20:42.026Z,10.80
2023-02-01T14:23:16.254Z,10.70
2023-02-01T14:25:46.550Z,10.70
2023-02-01T14:28:26.453Z,10.70
2023-02-01T14:30:56.760Z,10.70
2023-02-01T14:33:28.316Z,10.70
2023-02-01T14:36:10.436Z,10.70
2023-02-01T14:38:40.969Z,10.70
2023-02-01T14:41:29.063Z,10.70
2023-02-01T14:44:25.543Z,10.70
2023-02-01T14:47:22.386Z,10.70
2023-02-01T14:49:56.390Z,10.80
2023-02-01T14:52:31.788Z,10.80
2023-02-01T14:55:06.448Z,10.80
2023-02-01T14:57:39.890Z,10.80
2023-02-01T15:00:21.052Z,10.80
2023-02-01T15:02:51.679Z,10.80
2023-02-01T15:05:31.934Z,10.80
2023-02-01T15:08:07.866Z,10.80
2023-02-01T15:10:45.441Z,10.80
2023-02-01T15:13:26.620Z,10.70
2023-02-01T15:16:08.161Z,10.70
2023-02-01T15:18:36.541Z,10.60
2023-02-01T15:21:26.390Z,10.60
2023-02-01T15:24:12.876Z,10.50
2023-02-01T15:26:41.162Z,10.40
2023-02-01T15:29:16.094Z,10.40
2023-02-01T15:31:46.800Z,10.30
2023-02-01T15:34:15.591Z,10.20
2023-02-01T15:37:01.877Z,10.20
2023-02-01T15:39:32.483Z,10.10
2023-02-01T15:42:04.096Z,10.10
2023-02-01T15:44:41.276Z,10.00
2023-02-01T15:47:16.225Z,10.00
2023-02-01T15:49:48.022Z,9.90
2023-02-01T15:52:28.866Z,9.90
2023-02-01T15:55:02.898Z,9.90
2023-02-01T15:57:52.162Z,9.80
2023-02-01T16:04:19.273Z,9.60
2023-02-01T16:06:50.252Z,9.60
2023-02-01T16:09:20.627Z,9.60
2023-02-01T16:11:58.640Z,9.50
2023-02-01T16:14:27.841Z,9.50
2023-02-01T16:16:59.580Z,9.40
2023-02-01T16:19:29.799Z,9.40
2023-02-01T16:21:59.288Z,9.30
2023-02-01T16:24:27.830Z,9.30
2023-02-01T16:26:56.443Z,9.30
2023-02-01T16:29:26.038Z,9.30
2023-02-01T16:31:54.871Z,9.20
2023-02-01T16:34:23.378Z,9.20
2023-02-01T16:36:54.563Z,9.20
2023-02-01T16:39:23.295Z,9.20
2023-02-01T16:41:54.720Z,9.20
2023-02-01T16:44:23.060Z,9.20
2023-02-01T16:46:51.331Z,9.20
2023-02-01T16:49:21.919Z,9.20
2023-02-01T16:51:54.891Z,9.20
2023-02-01T16:54:23.694Z,9.20
2023-02-01T16:56:51.931Z,9.20
2023-02-01T16:59:20.101Z,9.20
2023-02-01T17:01:48.288Z,9.20
2023-02-01T17:04:17.579Z,9.30
2023-02-01T17:06:48.278Z,9.30
2023-02-01T17:09:17.886Z,9.30
2023-02-01T17:11:46.128Z,9.30
2023-02-01T17:14:18.527Z,9.30
2023-02-01T17:16:49.525Z,9.30
2023-02-01T17:19:20.377Z,9.30
2023-02-01T17:21:51.680Z,9.30
2023-02-01T17:24:27.109Z,9.30
2023-02-01T17:26:57.089Z,9.20
2023-02-01T17:29:26.902Z,9.20
2023-02-01T17:31:57.086Z,9.20
2023-02-01T17:34:25.355Z,9.20
2023-02-01T17:36:53.558Z,9.30
2023-02-01T17:39:40.897Z,9.20
2023-02-01T17:42:12.991Z,9.30
2023-02-01T17:44:41.215Z,9.30
2023-02-01T17:47:09.497Z,9.30
2023-02-01T17:49:40.969Z,9.30
2023-02-01T17:52:16.028Z,9.30
2023-02-01T17:54:47.724Z,9.30
2023-02-01T17:57:16.079Z,9.30
2023-02-01T17:59:44.354Z,9.30
2023-02-01T18:02:20.541Z,9.20
2023-02-01T18:04:49.379Z,9.20
2023-02-01T18:07:17.745Z,9.20
2023-02-01T18:09:47.337Z,9.20
2023-02-01T18:12:20.044Z,9.20
2023-02-01T18:14:48.330Z,9.20
2023-02-01T18:17:16.750Z,9.10
2023-02-01T18:19:44.958Z,9.10
2023-02-01T18:22:18.716Z,9.10
2023-02-01T18:24:48.392Z,9.10
2023-02-01T18:27:16.703Z,9.10
2023-02-01T18:29:44.920Z,9.10
2023-02-01T18:32:13.148Z,9.10
2023-02-01T18:34:41.351Z,9.10
2023-02-01T18:37:09.784Z,9.10
2023-02-01T18:39:39.476Z,9.00
2023-02-01T18:42:12.085Z,9.00
2023-02-01T18:44:40.311Z,9.00
2023-02-01T18:47:08.668Z,9.00
2023-02-01T18:49:37.893Z,9.00
2023-02-01T18:52:07.099Z,9.00
2023-02-01T18:54:35.325Z,9.00
2023-02-01T18:57:03.544Z,9.00
2023-02-01T18:59:33.169Z,9.00
2023-02-01T19:02:03.178Z,9.00
2023-02-01T19:04:31.423Z,9.00
2023-02-01T19:07:01.171Z,9.00
2023-02-01T19:09:32.211Z,9.00
2023-02-01T19:12:00.529Z,9.00
2023-02-01T19:14:28.774Z,9.00
2023-02-01T19:16:58.468Z,9.00
2023-02-01T19:19:27.601Z,9.10
2023-02-01T19:21:55.808Z,9.10
2023-02-01T19:24:27.998Z,9.10
2023-02-01T19:26:56.858Z,9.10
2023-02-01T19:29:25.395Z,9.10
2023-02-01T19:31:53.775Z,9.20
2023-02-01T19:34:23.443Z,9.20
2023-02-01T19:36:52.648Z,9.20
2023-02-01T19:39:22.167Z,9.20
2023-02-01T19:41:50.469Z,9.20
2023-02-01T19:44:18.820Z,9.20
2023-02-01T19:46:47.691Z,9.30
2023-02-01T19:49:16.166Z,9.30
2023-02-01T19:51:45.856Z,9.30
2023-02-01T19:54:14.258Z,9.30
2023-02-01T19:56:43.697Z,9.30
2023-02-01T19:59:13.103Z,9.30
2023-02-01T20:01:41.591Z,9.30
2023-02-01T20:04:11.552Z,9.40
2023-02-01T20:06:47.493Z,9.40
2023-02-01T20:09:18.367Z,9.40
2023-02-01T20:11:48.423Z,9.40
2023-02-01T20:14:16.833Z,9.40
2023-02-01T20:16:46.611Z,9.40
2023-02-01T20:19:18.027Z,9.50
2023-02-01T20:21:46.829Z,9.50
2023-02-01T20:24:18.484Z,9.50
2023-02-01T20:26:50.154Z,9.50
2023-02-01T20:29:18.873Z,9.60
2023-02-01T20:31:47.960Z,9.60
2023-02-01T20:34:16.455Z,9.60
2023-02-01T20:36:44.768Z,9.60
2023-02-01T20:39:13.386Z,9.70
2023-02-01T20:41:43.669Z,9.70
2023-02-01T20:44:14.099Z,9.70
2023-02-01T20:46:42.851Z,9.70
2023-02-01T20:49:11.289Z,9.80
2023-02-01T20:51:39.651Z,9.80
2023-02-01T20:54:07.985Z,9.80
2023-02-01T20:56:36.931Z,9.90
2023-02-01T20:59:11.793Z,9.90
2023-02-01T21:01:52.931Z,9.90
2023-02-01T21:04:22.823Z,10.00
2023-02-01T21:06:51.494Z,10.00
2023-02-01T21:09:19.849Z,10.00
2023-02-01T21:11:48.321Z,10.10
2023-02-01T21:14:18.255Z,10.10
2023-02-01T21:16:46.518Z,10.10
2023-02-01T21:19:14.729Z,10.10
2023-02-01T21:21:43.713Z,10.10
2023-02-01T21:24:11.994Z,10.20
2023-02-01T21:26:42.101Z,10.10
2023-02-01T21:29:11.567Z,10.10
2023-02-01T21:31:43.154Z,10.10
2023-02-01T21:34:11.675Z,10.10
2023-02-01T21:36:39.909Z,10.00
2023-02-01T21:39:11.657Z,10.00
2023-02-01T21:41:57.799Z,10.00
2023-02-01T21:44:26.075Z,10.10
2023-02-01T21:46:56.477Z,10.10
2023-02-01T21:49:26.254Z,10.10
2023-02-01T21:51:54.749Z,10.00
2023-02-01T21:54:23.149Z,10.10
2023-02-01T21:56:51.411Z,10.10
2023-02-01T21:59:19.960Z,10.10
2023-02-01T22:01:48.343Z,10.10
2023-02-01T22:04:18.283Z,10.10
2023-02-01T22:06:47.383Z,10.10
2023-02-01T22:09:18.352Z,10.10
2023-02-01T22:11:46.964Z,10.00
2023-02-01T22:14:15.959Z,10.10
2023-02-01T22:16:44.236Z,10.10
2023-02-01T22:19:13.822Z,10.00
2023-02-01T22:21:45.684Z,10.10
2023-02-01T22:24:15.466Z,10.00
2023-02-01T22:26:44.454Z,10.10
2023-02-01T22:29:14.696Z,10.10
2023-02-01T22:31:43.478Z,10.10
2023-02-01T22:34:12.460Z,10.20
2023-02-01T22:36:42.462Z,10.20
2023-02-01T22:39:11.062Z,10.10
2023-02-01T22:41:39.280Z,10.00
2023-02-01T22:44:07.871Z,9.90
2023-02-01T22:46:36.123Z,9.80
2023-02-01T22:49:05.134Z,9.60
2023-02-01T22:51:34.951Z,9.50
2023-02-01T22:54:04.692Z,9.40
2023-02-01T22:56:34.400Z,9.30
2023-02-01T22:59:04.482Z,9.20
2023-02-01T23:01:33.632Z,9.10
2023-02-01T23:04:02.892Z,9.00
2023-02-01T23:06:31.752Z,9.00
2023-02-01T23:09:01.622Z,9.00
2023-02-01T23:11:31.548Z,8.90
2023-02-01T23:13:59.759Z,8.90
2023-02-01T23:16:28.086Z,8.80
2023-02-01T23:18:56.688Z,8.80
2023-02-01T23:21:25.480Z,8.80
2023-02-01T23:23:56.007Z,8.80
2023-02-01T23:26:26.028Z,8.80
2023-02-01T23:28:57.157Z,8.70
2023-02-01T23:31:27.302Z,8.80
2023-02-01T23:33:56.661Z,8.70
2023-02-01T23:36:26.331Z,8.70
2023-02-01T23:38:54.834Z,8.80
2023-02-01T23:41:24.526Z,8.70
2023-02-01T23:43:57.943Z,8.70
2023-02-01T23:46:29.409Z,8.70
2023-02-01T23:48:58.352Z,8.70
2023-02-01T23:51:27.192Z,8.70
2023-02-01T23:53:55.668Z,8.60
2023-02-01T23:56:26.553Z,8.60
2023-02-01T23:58:56.854Z,8.60
